Terminal Aerodrome Forecast
Issued by NWS Twin Cities, MN

Home | Current Version | Previous Version | Graphics & Text | Print | Product List | Glossary On
Versions: 1 2 3 4 5 6 7 8 9 10 11 12 13 14
000
FTUS43 KMPX 250903 AAA
TAFSTC
TAF AMD
KSTC 250903Z 2509/2606 08008KT P6SM OVC018
     FM251200 09009KT P6SM SCT015 OVC025
     FM251600 08010G16KT P6SM SCT030 OVC050
     FM260300 07004KT P6SM SKC=

USA.gov is the U.S. government's official web portal to all federal, state and local government web resources and services.